sensor_id;sensor_type;location;lat;lon;timestamp;P1;durP1;ratioP1;P2;durP2;ratioP2
19255;SDS011;9762;52.490;13.410;2022-09-03T00:01:49;2.63;;;1.57;;
19255;SDS011;9762;52.490;13.410;2022-09-03T00:07:01;3.00;;;1.80;;
19255;SDS011;9762;52.490;13.410;2022-09-03T00:09:32;1.47;;;1.37;;
19255;SDS011;9762;52.490;13.410;2022-09-03T00:12:10;1.47;;;1.37;;
19255;SDS011;9762;52.490;13.410;2022-09-03T00:17:07;1.83;;;1.67;;
19255;SDS011;9762;52.490;13.410;2022-09-03T00:19:40;12.23;;;1.73;;
19255;SDS011;9762;52.490;13.410;2022-09-03T00:22:20;1.57;;;1.47;;
19255;SDS011;9762;52.490;13.410;2022-09-03T00:24:57;5.07;;;1.60;;
19255;SDS011;9762;52.490;13.410;2022-09-03T00:27:27;2.17;;;1.70;;
19255;SDS011;9762;52.490;13.410;2022-09-03T00:32:26;4.93;;;1.53;;
19255;SDS011;9762;52.490;13.410;2022-09-03T00:35:03;1.63;;;1.53;;
19255;SDS011;9762;52.490;13.410;2022-09-03T00:37:33;1.70;;;1.60;;
19255;SDS011;9762;52.490;13.410;2022-09-03T00:39:59;1.60;;;1.50;;
19255;SDS011;9762;52.490;13.410;2022-09-03T00:42:38;2.37;;;1.40;;
19255;SDS011;9762;52.490;13.410;2022-09-03T00:53:23;4.33;;;1.47;;
19255;SDS011;9762;52.490;13.410;2022-09-03T00:56:07;2.10;;;1.37;;
19255;SDS011;9762;52.490;13.410;2022-09-03T00:58:57;1.53;;;1.13;;
19255;SDS011;9762;52.490;13.410;2022-09-03T01:07:00;2.70;;;1.63;;
19255;SDS011;9762;52.490;13.410;2022-09-03T01:12:13;1.53;;;1.43;;
19255;SDS011;9762;52.490;13.410;2022-09-03T01:15:04;1.30;;;1.20;;
19255;SDS011;9762;52.490;13.410;2022-09-03T01:17:39;2.83;;;1.40;;
19255;SDS011;9762;52.490;13.410;2022-09-03T01:25:48;1.37;;;1.30;;
19255;SDS011;9762;52.490;13.410;2022-09-03T01:28:25;3.10;;;1.77;;
19255;SDS011;9762;52.490;13.410;2022-09-03T01:33:49;1.60;;;1.50;;
19255;SDS011;9762;52.490;13.410;2022-09-03T01:50:36;1.50;;;1.40;;
19255;SDS011;9762;52.490;13.410;2022-09-03T01:59:06;2.60;;;1.30;;
19255;SDS011;9762;52.490;13.410;2022-09-03T02:01:45;2.63;;;1.37;;
19255;SDS011;9762;52.490;13.410;2022-09-03T02:04:20;1.30;;;1.30;;
19255;SDS011;9762;52.490;13.410;2022-09-03T02:06:51;1.87;;;1.50;;
19255;SDS011;9762;52.490;13.410;2022-09-03T02:09:18;1.40;;;1.30;;
19255;SDS011;9762;52.490;13.410;2022-09-03T02:11:45;2.60;;;1.40;;
19255;SDS011;9762;52.490;13.410;2022-09-03T02:14:17;1.83;;;1.40;;
19255;SDS011;9762;52.490;13.410;2022-09-03T02:16:43;1.47;;;1.20;;
19255;SDS011;9762;52.490;13.410;2022-09-03T02:19:10;2.27;;;1.30;;
19255;SDS011;9762;52.490;13.410;2022-09-03T02:21:43;1.70;;;1.50;;
19255;SDS011;9762;52.490;13.410;2022-09-03T02:24:14;1.90;;;1.37;;
19255;SDS011;9762;52.490;13.410;2022-09-03T02:26:40;4.40;;;1.60;;
19255;SDS011;9762;52.490;13.410;2022-09-03T02:29:05;1.60;;;1.50;;
19255;SDS011;9762;52.490;13.410;2022-09-03T02:31:31;1.10;;;1.10;;
19255;SDS011;9762;52.490;13.410;2022-09-03T02:33:57;2.03;;;1.73;;
19255;SDS011;9762;52.490;13.410;2022-09-03T02:36:27;2.57;;;1.63;;
19255;SDS011;9762;52.490;13.410;2022-09-03T02:38:56;1.63;;;1.47;;
19255;SDS011;9762;52.490;13.410;2022-09-03T02:41:22;3.47;;;1.60;;
19255;SDS011;9762;52.490;13.410;2022-09-03T02:46:28;3.80;;;1.60;;
19255;SDS011;9762;52.490;13.410;2022-09-03T02:48:58;6.87;;;1.50;;
19255;SDS011;9762;52.490;13.410;2022-09-03T02:51:24;3.83;;;1.50;;
19255;SDS011;9762;52.490;13.410;2022-09-03T02:53:50;1.60;;;1.50;;
19255;SDS011;9762;52.490;13.410;2022-09-03T02:56:15;3.27;;;1.50;;
19255;SDS011;9762;52.490;13.410;2022-09-03T02:58:41;6.93;;;1.60;;
19255;SDS011;9762;52.490;13.410;2022-09-03T03:01:06;4.03;;;1.33;;
19255;SDS011;9762;52.490;13.410;2022-09-03T03:03:32;1.90;;;1.77;;
19255;SDS011;9762;52.490;13.410;2022-09-03T03:05:59;6.03;;;1.73;;
19255;SDS011;9762;52.490;13.410;2022-09-03T03:08:27;1.60;;;1.50;;
19255;SDS011;9762;52.490;13.410;2022-09-03T03:10:54;2.27;;;2.07;;
19255;SDS011;9762;52.490;13.410;2022-09-03T03:13:27;2.53;;;1.67;;
19255;SDS011;9762;52.490;13.410;2022-09-03T03:15:56;1.70;;;1.60;;
19255;SDS011;9762;52.490;13.410;2022-09-03T03:18:23;1.57;;;1.47;;
19255;SDS011;9762;52.490;13.410;2022-09-03T03:20:49;5.50;;;1.83;;
19255;SDS011;9762;52.490;13.410;2022-09-03T03:23:15;2.93;;;1.70;;
19255;SDS011;9762;52.490;13.410;2022-09-03T03:25:40;1.70;;;1.70;;
19255;SDS011;9762;52.490;13.410;2022-09-03T03:28:06;1.63;;;1.63;;
19255;SDS011;9762;52.490;13.410;2022-09-03T03:30:32;1.90;;;1.73;;
19255;SDS011;9762;52.490;13.410;2022-09-03T03:32:58;1.70;;;1.60;;
19255;SDS011;9762;52.490;13.410;2022-09-03T03:35:25;2.70;;;1.70;;
19255;SDS011;9762;52.490;13.410;2022-09-03T03:37:50;4.00;;;1.70;;
19255;SDS011;9762;52.490;13.410;2022-09-03T03:40:16;1.77;;;1.67;;
19255;SDS011;9762;52.490;13.410;2022-09-03T03:42:42;1.70;;;1.60;;
19255;SDS011;9762;52.490;13.410;2022-09-03T03:45:08;3.77;;;1.70;;
19255;SDS011;9762;52.490;13.410;2022-09-03T03:47:34;1.30;;;1.30;;
19255;SDS011;9762;52.490;13.410;2022-09-03T03:50:00;3.57;;;1.93;;
19255;SDS011;9762;52.490;13.410;2022-09-03T03:52:26;1.70;;;1.60;;
19255;SDS011;9762;52.490;13.410;2022-09-03T03:54:52;4.20;;;1.50;;
19255;SDS011;9762;52.490;13.410;2022-09-03T03:57:18;1.70;;;1.60;;
19255;SDS011;9762;52.490;13.410;2022-09-03T03:59:45;4.20;;;1.97;;
19255;SDS011;9762;52.490;13.410;2022-09-03T04:02:11;1.60;;;1.50;;
19255;SDS011;9762;52.490;13.410;2022-09-03T04:04:37;3.23;;;2.00;;
19255;SDS011;9762;52.490;13.410;2022-09-03T04:07:03;2.47;;;1.70;;
19255;SDS011;9762;52.490;13.410;2022-09-03T04:09:29;1.83;;;1.57;;
19255;SDS011;9762;52.490;13.410;2022-09-03T04:11:54;2.83;;;1.80;;
19255;SDS011;9762;52.490;13.410;2022-09-03T04:14:23;2.30;;;1.50;;
19255;SDS011;9762;52.490;13.410;2022-09-03T04:16:50;2.53;;;1.50;;
19255;SDS011;9762;52.490;13.410;2022-09-03T04:19:15;1.70;;;1.60;;
19255;SDS011;9762;52.490;13.410;2022-09-03T04:21:41;4.83;;;1.63;;
19255;SDS011;9762;52.490;13.410;2022-09-03T04:24:08;1.80;;;1.70;;
19255;SDS011;9762;52.490;13.410;2022-09-03T04:26:34;1.70;;;1.60;;
19255;SDS011;9762;52.490;13.410;2022-09-03T04:29:04;1.87;;;1.70;;
19255;SDS011;9762;52.490;13.410;2022-09-03T04:31:32;3.33;;;1.53;;
19255;SDS011;9762;52.490;13.410;2022-09-03T04:33:58;2.33;;;1.60;;
19255;SDS011;9762;52.490;13.410;2022-09-03T04:36:25;1.70;;;1.60;;
19255;SDS011;9762;52.490;13.410;2022-09-03T04:38:52;4.50;;;1.80;;
19255;SDS011;9762;52.490;13.410;2022-09-03T04:41:23;1.53;;;1.43;;
19255;SDS011;9762;52.490;13.410;2022-09-03T04:43:51;1.60;;;1.50;;
19255;SDS011;9762;52.490;13.410;2022-09-03T04:46:18;1.57;;;1.47;;
19255;SDS011;9762;52.490;13.410;2022-09-03T04:48:48;1.67;;;1.57;;
19255;SDS011;9762;52.490;13.410;2022-09-03T04:51:16;4.93;;;2.03;;
19255;SDS011;9762;52.490;13.410;2022-09-03T04:53:45;4.20;;;1.97;;
19255;SDS011;9762;52.490;13.410;2022-09-03T04:58:43;6.10;;;2.00;;
19255;SDS011;9762;52.490;13.410;2022-09-03T05:01:09;4.63;;;1.87;;
19255;SDS011;9762;52.490;13.410;2022-09-03T05:03:37;3.10;;;1.40;;
19255;SDS011;9762;52.490;13.410;2022-09-03T05:06:03;2.97;;;1.90;;
19255;SDS011;9762;52.490;13.410;2022-09-03T05:08:30;1.90;;;1.50;;
19255;SDS011;9762;52.490;13.410;2022-09-03T05:10:57;5.13;;;1.40;;
19255;SDS011;9762;52.490;13.410;2022-09-03T05:13:24;2.00;;;1.53;;
19255;SDS011;9762;52.490;13.410;2022-09-03T05:15:50;3.67;;;1.87;;
19255;SDS011;9762;52.490;13.410;2022-09-03T05:18:15;5.20;;;1.77;;
19255;SDS011;9762;52.490;13.410;2022-09-03T05:20:41;4.97;;;1.70;;
19255;SDS011;9762;52.490;13.410;2022-09-03T05:23:07;1.73;;;1.63;;
19255;SDS011;9762;52.490;13.410;2022-09-03T05:25:33;2.57;;;1.70;;
19255;SDS011;9762;52.490;13.410;2022-09-03T05:28:00;1.93;;;1.80;;
19255;SDS011;9762;52.490;13.410;2022-09-03T05:30:26;2.73;;;1.80;;
19255;SDS011;9762;52.490;13.410;2022-09-03T05:32:51;4.40;;;2.10;;
19255;SDS011;9762;52.490;13.410;2022-09-03T05:35:17;1.83;;;1.73;;
19255;SDS011;9762;52.490;13.410;2022-09-03T05:37:43;2.43;;;2.07;;
19255;SDS011;9762;52.490;13.410;2022-09-03T05:40:08;2.30;;;2.10;;
19255;SDS011;9762;52.490;13.410;2022-09-03T05:42:35;4.10;;;1.90;;
19255;SDS011;9762;52.490;13.410;2022-09-03T05:45:07;5.23;;;1.90;;
19255;SDS011;9762;52.490;13.410;2022-09-03T05:47:37;3.20;;;1.70;;
19255;SDS011;9762;52.490;13.410;2022-09-03T05:50:04;1.90;;;1.80;;
19255;SDS011;9762;52.490;13.410;2022-09-03T05:52:31;1.80;;;1.70;;
19255;SDS011;9762;52.490;13.410;2022-09-03T05:54:56;2.03;;;1.93;;
19255;SDS011;9762;52.490;13.410;2022-09-03T05:57:22;2.30;;;2.10;;
19255;SDS011;9762;52.490;13.410;2022-09-03T05:59:48;4.23;;;2.03;;
19255;SDS011;9762;52.490;13.410;2022-09-03T06:02:14;4.50;;;2.40;;
19255;SDS011;9762;52.490;13.410;2022-09-03T06:04:39;2.43;;;2.10;;
19255;SDS011;9762;52.490;13.410;2022-09-03T06:07:05;2.10;;;2.00;;
19255;SDS011;9762;52.490;13.410;2022-09-03T06:09:31;3.73;;;2.17;;
19255;SDS011;9762;52.490;13.410;2022-09-03T06:11:56;3.07;;;1.80;;
19255;SDS011;9762;52.490;13.410;2022-09-03T06:14:22;6.70;;;1.90;;
19255;SDS011;9762;52.490;13.410;2022-09-03T06:16:48;2.87;;;2.00;;
19255;SDS011;9762;52.490;13.410;2022-09-03T06:19:14;3.20;;;2.20;;
19255;SDS011;9762;52.490;13.410;2022-09-03T06:21:41;4.10;;;2.40;;
19255;SDS011;9762;52.490;13.410;2022-09-03T06:24:08;7.17;;;1.83;;
19255;SDS011;9762;52.490;13.410;2022-09-03T06:26:35;1.97;;;1.83;;
19255;SDS011;9762;52.490;13.410;2022-09-03T06:29:01;2.03;;;1.93;;
19255;SDS011;9762;52.490;13.410;2022-09-03T06:31:27;5.40;;;2.00;;
19255;SDS011;9762;52.490;13.410;2022-09-03T06:33:52;2.10;;;2.00;;
19255;SDS011;9762;52.490;13.410;2022-09-03T06:36:19;3.23;;;2.10;;
19255;SDS011;9762;52.490;13.410;2022-09-03T06:38:46;4.57;;;1.90;;
19255;SDS011;9762;52.490;13.410;2022-09-03T06:41:16;2.87;;;2.53;;
19255;SDS011;9762;52.490;13.410;2022-09-03T06:43:51;2.63;;;1.60;;
19255;SDS011;9762;52.490;13.410;2022-09-03T06:46:19;3.00;;;1.73;;
19255;SDS011;9762;52.490;13.410;2022-09-03T06:48:47;2.13;;;2.00;;
19255;SDS011;9762;52.490;13.410;2022-09-03T06:51:14;2.10;;;2.00;;
19255;SDS011;9762;52.490;13.410;2022-09-03T06:53:51;2.30;;;2.10;;
19255;SDS011;9762;52.490;13.410;2022-09-03T06:56:19;1.80;;;1.70;;
19255;SDS011;9762;52.490;13.410;2022-09-03T06:58:50;2.50;;;1.80;;
19255;SDS011;9762;52.490;13.410;2022-09-03T07:01:18;1.93;;;1.83;;
19255;SDS011;9762;52.490;13.410;2022-09-03T07:03:46;2.77;;;1.97;;
19255;SDS011;9762;52.490;13.410;2022-09-03T07:06:17;6.80;;;1.80;;
19255;SDS011;9762;52.490;13.410;2022-09-03T07:08:45;13.07;;;4.70;;
19255;SDS011;9762;52.490;13.410;2022-09-03T07:11:12;7.03;;;4.93;;
19255;SDS011;9762;52.490;13.410;2022-09-03T07:13:41;9.47;;;2.97;;
19255;SDS011;9762;52.490;13.410;2022-09-03T07:16:12;2.00;;;1.90;;
19255;SDS011;9762;52.490;13.410;2022-09-03T07:18:40;2.10;;;2.00;;
19255;SDS011;9762;52.490;13.410;2022-09-03T07:21:08;1.97;;;1.70;;
19255;SDS011;9762;52.490;13.410;2022-09-03T07:23:39;1.70;;;1.60;;
19255;SDS011;9762;52.490;13.410;2022-09-03T07:26:09;2.37;;;2.20;;
19255;SDS011;9762;52.490;13.410;2022-09-03T07:28:38;5.37;;;1.63;;
19255;SDS011;9762;52.490;13.410;2022-09-03T07:31:05;5.73;;;1.80;;
19255;SDS011;9762;52.490;13.410;2022-09-03T07:33:36;1.90;;;1.80;;
19255;SDS011;9762;52.490;13.410;2022-09-03T07:36:06;6.63;;;1.90;;
19255;SDS011;9762;52.490;13.410;2022-09-03T07:38:34;2.73;;;1.50;;
19255;SDS011;9762;52.490;13.410;2022-09-03T07:41:01;2.20;;;2.00;;
19255;SDS011;9762;52.490;13.410;2022-09-03T07:43:35;2.93;;;2.10;;
19255;SDS011;9762;52.490;13.410;2022-09-03T07:46:04;3.03;;;1.70;;
19255;SDS011;9762;52.490;13.410;2022-09-03T07:48:30;1.90;;;1.80;;
19255;SDS011;9762;52.490;13.410;2022-09-03T07:50:57;1.93;;;1.77;;
19255;SDS011;9762;52.490;13.410;2022-09-03T07:53:25;2.90;;;1.83;;
19255;SDS011;9762;52.490;13.410;2022-09-03T07:55:51;3.70;;;1.70;;
19255;SDS011;9762;52.490;13.410;2022-09-03T07:58:16;8.00;;;1.90;;
19255;SDS011;9762;52.490;13.410;2022-09-03T08:00:42;5.10;;;1.90;;
19255;SDS011;9762;52.490;13.410;2022-09-03T08:03:08;1.80;;;1.70;;
19255;SDS011;9762;52.490;13.410;2022-09-03T08:05:35;6.83;;;1.70;;
19255;SDS011;9762;52.490;13.410;2022-09-03T08:08:02;3.00;;;2.10;;
19255;SDS011;9762;52.490;13.410;2022-09-03T08:10:29;6.33;;;1.97;;
19255;SDS011;9762;52.490;13.410;2022-09-03T08:12:58;3.33;;;1.67;;
19255;SDS011;9762;52.490;13.410;2022-09-03T08:15:24;3.27;;;1.90;;
19255;SDS011;9762;52.490;13.410;2022-09-03T08:17:50;1.77;;;1.70;;
19255;SDS011;9762;52.490;13.410;2022-09-03T08:20:16;3.00;;;2.10;;
19255;SDS011;9762;52.490;13.410;2022-09-03T08:22:42;5.07;;;2.30;;
19255;SDS011;9762;52.490;13.410;2022-09-03T08:25:08;5.27;;;2.40;;
19255;SDS011;9762;52.490;13.410;2022-09-03T08:27:33;5.63;;;2.90;;
19255;SDS011;9762;52.490;13.410;2022-09-03T08:29:59;3.43;;;1.80;;
19255;SDS011;9762;52.490;13.410;2022-09-03T08:32:25;5.77;;;2.13;;
19255;SDS011;9762;52.490;13.410;2022-09-03T08:34:51;3.73;;;1.80;;
19255;SDS011;9762;52.490;13.410;2022-09-03T08:37:16;11.03;;;2.33;;
19255;SDS011;9762;52.490;13.410;2022-09-03T08:39:43;2.93;;;1.93;;
19255;SDS011;9762;52.490;13.410;2022-09-03T08:45:02;2.00;;;1.90;;
19255;SDS011;9762;52.490;13.410;2022-09-03T08:47:39;3.77;;;2.00;;
19255;SDS011;9762;52.490;13.410;2022-09-03T08:50:24;4.90;;;2.10;;
19255;SDS011;9762;52.490;13.410;2022-09-03T08:53:02;5.23;;;1.87;;
19255;SDS011;9762;52.490;13.410;2022-09-03T08:55:51;2.17;;;1.80;;
19255;SDS011;9762;52.490;13.410;2022-09-03T08:58:19;2.53;;;2.03;;
19255;SDS011;9762;52.490;13.410;2022-09-03T09:00:53;4.63;;;1.90;;
19255;SDS011;9762;52.490;13.410;2022-09-03T09:22:49;1.93;;;1.83;;
19255;SDS011;9762;52.490;13.410;2022-09-03T09:25:21;1.93;;;1.80;;
19255;SDS011;9762;52.490;13.410;2022-09-03T09:27:51;2.60;;;1.70;;
19255;SDS011;9762;52.490;13.410;2022-09-03T09:30:30;1.97;;;1.50;;
19255;SDS011;9762;52.490;13.410;2022-09-03T09:32:56;4.70;;;1.60;;
19255;SDS011;9762;52.490;13.410;2022-09-03T09:35:22;3.73;;;1.80;;
19255;SDS011;9762;52.490;13.410;2022-09-03T09:37:50;2.53;;;2.10;;
19255;SDS011;9762;52.490;13.410;2022-09-03T09:40:38;8.13;;;1.80;;
19255;SDS011;9762;52.490;13.410;2022-09-03T09:43:15;3.20;;;1.57;;
19255;SDS011;9762;52.490;13.410;2022-09-03T09:45:48;3.80;;;1.37;;
19255;SDS011;9762;52.490;13.410;2022-09-03T09:48:25;2.67;;;1.80;;
19255;SDS011;9762;52.490;13.410;2022-09-03T09:51:05;5.73;;;1.80;;
19255;SDS011;9762;52.490;13.410;2022-09-03T09:53:36;2.70;;;1.70;;
19255;SDS011;9762;52.490;13.410;2022-09-03T09:56:03;3.17;;;1.53;;
19255;SDS011;9762;52.490;13.410;2022-09-03T09:58:29;1.60;;;1.50;;
19255;SDS011;9762;52.490;13.410;2022-09-03T10:01:10;4.03;;;1.90;;
19255;SDS011;9762;52.490;13.410;2022-09-03T10:03:52;2.13;;;1.90;;
19255;SDS011;9762;52.490;13.410;2022-09-03T10:06:29;1.60;;;1.50;;
19255;SDS011;9762;52.490;13.410;2022-09-03T10:09:15;2.87;;;1.27;;
19255;SDS011;9762;52.490;13.410;2022-09-03T10:11:47;5.90;;;1.67;;
19255;SDS011;9762;52.490;13.410;2022-09-03T10:14:46;2.83;;;1.40;;
19255;SDS011;9762;52.490;13.410;2022-09-03T10:17:37;2.07;;;1.57;;
19255;SDS011;9762;52.490;13.410;2022-09-03T10:25:35;4.83;;;1.80;;
19255;SDS011;9762;52.490;13.410;2022-09-03T10:28:08;2.23;;;1.60;;
19255;SDS011;9762;52.490;13.410;2022-09-03T10:30:47;3.97;;;1.47;;
19255;SDS011;9762;52.490;13.410;2022-09-03T10:33:28;2.53;;;1.10;;
19255;SDS011;9762;52.490;13.410;2022-09-03T10:36:21;1.30;;;1.30;;
19255;SDS011;9762;52.490;13.410;2022-09-03T10:38:48;4.60;;;1.43;;
19255;SDS011;9762;52.490;13.410;2022-09-03T10:44:45;4.00;;;1.70;;
19255;SDS011;9762;52.490;13.410;2022-09-03T10:52:40;1.57;;;1.50;;
19255;SDS011;9762;52.490;13.410;2022-09-03T11:00:46;1.90;;;1.77;;
19255;SDS011;9762;52.490;13.410;2022-09-03T11:06:08;7.30;;;2.23;;
19255;SDS011;9762;52.490;13.410;2022-09-03T11:08:39;10.30;;;2.03;;
19255;SDS011;9762;52.490;13.410;2022-09-03T11:11:14;2.07;;;1.93;;
19255;SDS011;9762;52.490;13.410;2022-09-03T11:13:56;12.80;;;1.88;;
19255;SDS011;9762;52.490;13.410;2022-09-03T11:16:29;5.03;;;1.90;;
19255;SDS011;9762;52.490;13.410;2022-09-03T11:19:02;4.32;;;1.67;;
19255;SDS011;9762;52.490;13.410;2022-09-03T11:21:30;6.45;;;1.70;;
19255;SDS011;9762;52.490;13.410;2022-09-03T11:24:19;2.20;;;2.00;;
19255;SDS011;9762;52.490;13.410;2022-09-03T11:27:34;6.35;;;1.90;;
19255;SDS011;9762;52.490;13.410;2022-09-03T11:32:46;7.45;;;3.60;;
19255;SDS011;9762;52.490;13.410;2022-09-03T11:35:28;7.35;;;2.40;;
19255;SDS011;9762;52.490;13.410;2022-09-03T11:43:45;3.67;;;1.75;;
19255;SDS011;9762;52.490;13.410;2022-09-03T11:48:46;5.15;;;3.05;;
19255;SDS011;9762;52.490;13.410;2022-09-03T11:51:54;5.03;;;3.58;;
19255;SDS011;9762;52.490;13.410;2022-09-03T11:56:37;4.82;;;2.63;;
19255;SDS011;9762;52.490;13.410;2022-09-03T12:04:24;5.15;;;3.17;;
19255;SDS011;9762;52.490;13.410;2022-09-03T12:18:28;4.88;;;2.00;;
19255;SDS011;9762;52.490;13.410;2022-09-03T12:26:04;3.28;;;1.95;;
19255;SDS011;9762;52.490;13.410;2022-09-03T12:28:37;2.05;;;1.80;;
19255;SDS011;9762;52.490;13.410;2022-09-03T12:33:45;7.78;;;1.80;;
19255;SDS011;9762;52.490;13.410;2022-09-03T12:36:12;5.20;;;1.90;;
19255;SDS011;9762;52.490;13.410;2022-09-03T12:38:38;3.17;;;2.88;;
19255;SDS011;9762;52.490;13.410;2022-09-03T12:41:04;2.50;;;2.30;;
19255;SDS011;9762;52.490;13.410;2022-09-03T12:43:30;2.00;;;1.88;;
19255;SDS011;9762;52.490;13.410;2022-09-03T12:45:56;2.00;;;1.90;;
19255;SDS011;9762;52.490;13.410;2022-09-03T12:48:22;8.48;;;2.05;;
19255;SDS011;9762;52.490;13.410;2022-09-03T12:50:48;1.90;;;1.80;;
19255;SDS011;9762;52.490;13.410;2022-09-03T12:53:24;3.78;;;2.47;;
19255;SDS011;9762;52.490;13.410;2022-09-03T12:55:51;4.32;;;1.90;;
19255;SDS011;9762;52.490;13.410;2022-09-03T12:58:52;8.35;;;2.38;;
19255;SDS011;9762;52.490;13.410;2022-09-03T13:01:11;4.00;;;2.25;;
19255;SDS011;9762;52.490;13.410;2022-09-03T13:06:09;2.83;;;2.40;;
19255;SDS011;9762;52.490;13.410;2022-09-03T13:08:44;4.30;;;2.35;;
19255;SDS011;9762;52.490;13.410;2022-09-03T13:11:13;2.20;;;1.98;;
19255;SDS011;9762;52.490;13.410;2022-09-03T13:13:47;2.63;;;2.45;;
19255;SDS011;9762;52.490;13.410;2022-09-03T13:24:15;4.47;;;2.72;;
19255;SDS011;9762;52.490;13.410;2022-09-03T13:37:39;2.20;;;2.10;;
19255;SDS011;9762;52.490;13.410;2022-09-03T13:43:43;3.00;;;2.30;;
19255;SDS011;9762;52.490;13.410;2022-09-03T13:45:44;3.88;;;2.00;;
19255;SDS011;9762;52.490;13.410;2022-09-03T13:48:21;3.20;;;2.35;;
19255;SDS011;9762;52.490;13.410;2022-09-03T13:51:13;3.42;;;2.20;;
19255;SDS011;9762;52.490;13.410;2022-09-03T14:04:13;3.88;;;2.50;;
19255;SDS011;9762;52.490;13.410;2022-09-03T14:06:48;6.22;;;2.70;;
19255;SDS011;9762;52.490;13.410;2022-09-03T14:09:29;5.05;;;2.90;;
19255;SDS011;9762;52.490;13.410;2022-09-03T14:12:03;4.30;;;3.83;;
19255;SDS011;9762;52.490;13.410;2022-09-03T14:20:07;3.17;;;2.58;;
19255;SDS011;9762;52.490;13.410;2022-09-03T14:22:44;2.30;;;2.20;;
19255;SDS011;9762;52.490;13.410;2022-09-03T14:25:18;2.70;;;1.80;;
19255;SDS011;9762;52.490;13.410;2022-09-03T14:27:46;2.00;;;1.75;;
19255;SDS011;9762;52.490;13.410;2022-09-03T14:32:53;3.50;;;2.20;;
19255;SDS011;9762;52.490;13.410;2022-09-03T14:52:06;4.68;;;3.03;;
19255;SDS011;9762;52.490;13.410;2022-09-03T14:55:03;2.20;;;2.15;;
19255;SDS011;9762;52.490;13.410;2022-09-03T14:58:09;2.50;;;2.40;;
19255;SDS011;9762;52.490;13.410;2022-09-03T15:00:59;2.97;;;2.65;;
19255;SDS011;9762;52.490;13.410;2022-09-03T15:10:03;9.35;;;2.50;;
19255;SDS011;9762;52.490;13.410;2022-09-03T15:12:39;4.90;;;2.55;;
19255;SDS011;9762;52.490;13.410;2022-09-03T15:15:18;2.60;;;2.40;;
19255;SDS011;9762;52.490;13.410;2022-09-03T15:20:48;3.63;;;3.00;;
19255;SDS011;9762;52.490;13.410;2022-09-03T15:29:01;4.63;;;3.05;;
19255;SDS011;9762;52.490;13.410;2022-09-03T15:34:36;6.53;;;4.05;;
19255;SDS011;9762;52.490;13.410;2022-09-03T15:37:12;4.22;;;3.25;;
19255;SDS011;9762;52.490;13.410;2022-09-03T15:39:45;3.92;;;2.60;;
19255;SDS011;9762;52.490;13.410;2022-09-03T15:42:22;7.35;;;3.15;;
19255;SDS011;9762;52.490;13.410;2022-09-03T15:44:52;3.78;;;2.60;;
19255;SDS011;9762;52.490;13.410;2022-09-03T15:52:58;3.95;;;2.30;;
19255;SDS011;9762;52.490;13.410;2022-09-03T15:55:34;5.85;;;2.60;;
19255;SDS011;9762;52.490;13.410;2022-09-03T15:58:21;9.77;;;2.50;;
19255;SDS011;9762;52.490;13.410;2022-09-03T16:00:56;6.10;;;3.05;;
19255;SDS011;9762;52.490;13.410;2022-09-03T16:06:52;6.30;;;3.00;;
19255;SDS011;9762;52.490;13.410;2022-09-03T16:12:12;2.53;;;1.97;;
19255;SDS011;9762;52.490;13.410;2022-09-03T16:14:45;8.37;;;2.80;;
19255;SDS011;9762;52.490;13.410;2022-09-03T16:17:48;4.30;;;2.40;;
19255;SDS011;9762;52.490;13.410;2022-09-03T16:20:57;3.13;;;2.33;;
19255;SDS011;9762;52.490;13.410;2022-09-03T16:23:35;3.83;;;2.50;;
19255;SDS011;9762;52.490;13.410;2022-09-03T16:26:17;6.30;;;2.40;;
19255;SDS011;9762;52.490;13.410;2022-09-03T16:28:54;4.53;;;2.87;;
19255;SDS011;9762;52.490;13.410;2022-09-03T16:31:36;3.07;;;2.87;;
19255;SDS011;9762;52.490;13.410;2022-09-03T16:42:49;6.03;;;5.43;;
19255;SDS011;9762;52.490;13.410;2022-09-03T16:50:32;5.33;;;3.90;;
19255;SDS011;9762;52.490;13.410;2022-09-03T16:58:47;4.10;;;3.53;;
19255;SDS011;9762;52.490;13.410;2022-09-03T17:09:55;4.23;;;3.90;;
19255;SDS011;9762;52.490;13.410;2022-09-03T17:12:47;9.03;;;4.37;;
19255;SDS011;9762;52.490;13.410;2022-09-03T17:15:30;6.60;;;4.20;;
19255;SDS011;9762;52.490;13.410;2022-09-03T17:21:14;4.90;;;3.57;;
19255;SDS011;9762;52.490;13.410;2022-09-03T17:29:21;4.93;;;3.50;;
19255;SDS011;9762;52.490;13.410;2022-09-03T17:34:59;6.67;;;3.00;;
19255;SDS011;9762;52.490;13.410;2022-09-03T17:48:50;6.87;;;4.43;;
19255;SDS011;9762;52.490;13.410;2022-09-03T17:54:21;6.93;;;4.40;;
19255;SDS011;9762;52.490;13.410;2022-09-03T18:10:44;8.83;;;4.87;;
19255;SDS011;9762;52.490;13.410;2022-09-03T18:13:38;5.80;;;4.00;;
19255;SDS011;9762;52.490;13.410;2022-09-03T18:18:51;8.53;;;6.67;;
19255;SDS011;9762;52.490;13.410;2022-09-03T18:21:28;8.27;;;6.73;;
19255;SDS011;9762;52.490;13.410;2022-09-03T18:28:03;4.90;;;4.50;;
19255;SDS011;9762;52.490;13.410;2022-09-03T18:30:49;8.70;;;5.27;;
19255;SDS011;9762;52.490;13.410;2022-09-03T18:33:33;7.97;;;5.47;;
19255;SDS011;9762;52.490;13.410;2022-09-03T18:36:17;6.00;;;5.50;;
19255;SDS011;9762;52.490;13.410;2022-09-03T18:39:18;8.07;;;6.20;;
19255;SDS011;9762;52.490;13.410;2022-09-03T18:45:14;7.83;;;6.07;;
19255;SDS011;9762;52.490;13.410;2022-09-03T18:51:42;7.40;;;6.30;;
19255;SDS011;9762;52.490;13.410;2022-09-03T19:00:47;6.50;;;5.53;;
19255;SDS011;9762;52.490;13.410;2022-09-03T19:10:25;5.43;;;4.33;;
19255;SDS011;9762;52.490;13.410;2022-09-03T19:19:20;7.73;;;3.97;;
19255;SDS011;9762;52.490;13.410;2022-09-03T19:22:08;8.97;;;4.00;;
19255;SDS011;9762;52.490;13.410;2022-09-03T19:25:01;7.67;;;4.07;;
19255;SDS011;9762;52.490;13.410;2022-09-03T19:31:09;4.10;;;3.80;;
19255;SDS011;9762;52.490;13.410;2022-09-03T19:37:24;5.40;;;3.90;;
19255;SDS011;9762;52.490;13.410;2022-09-03T19:40:23;3.90;;;3.60;;
19255;SDS011;9762;52.490;13.410;2022-09-03T19:55:11;5.10;;;4.37;;
19255;SDS011;9762;52.490;13.410;2022-09-03T19:58:01;4.23;;;3.83;;
19255;SDS011;9762;52.490;13.410;2022-09-03T20:00:45;4.73;;;4.33;;
19255;SDS011;9762;52.490;13.410;2022-09-03T20:03:30;4.10;;;3.80;;
19255;SDS011;9762;52.490;13.410;2022-09-03T20:06:14;11.10;;;4.07;;
19255;SDS011;9762;52.490;13.410;2022-09-03T20:09:01;8.90;;;4.43;;
19255;SDS011;9762;52.490;13.410;2022-09-03T20:11:52;3.97;;;3.73;;
19255;SDS011;9762;52.490;13.410;2022-09-03T20:14:21;5.90;;;3.67;;
19255;SDS011;9762;52.490;13.410;2022-09-03T20:19:57;4.27;;;3.87;;
19255;SDS011;9762;52.490;13.410;2022-09-03T20:25:30;5.37;;;3.80;;
19255;SDS011;9762;52.490;13.410;2022-09-03T20:28:30;4.00;;;3.70;;
19255;SDS011;9762;52.490;13.410;2022-09-03T20:33:46;5.57;;;3.60;;
19255;SDS011;9762;52.490;13.410;2022-09-03T20:36:35;4.60;;;3.40;;
19255;SDS011;9762;52.490;13.410;2022-09-03T20:47:04;3.10;;;2.90;;
19255;SDS011;9762;52.490;13.410;2022-09-03T20:53:08;3.93;;;3.13;;
19255;SDS011;9762;52.490;13.410;2022-09-03T20:55:19;3.30;;;3.10;;
19255;SDS011;9762;52.490;13.410;2022-09-03T21:00:27;4.60;;;2.80;;
19255;SDS011;9762;52.490;13.410;2022-09-03T21:03:11;5.37;;;3.00;;
19255;SDS011;9762;52.490;13.410;2022-09-03T21:05:46;5.03;;;3.13;;
19255;SDS011;9762;52.490;13.410;2022-09-03T21:16:40;3.20;;;2.70;;
19255;SDS011;9762;52.490;13.410;2022-09-03T21:25:30;7.10;;;3.30;;
19255;SDS011;9762;52.490;13.410;2022-09-03T21:28:21;5.20;;;2.60;;
19255;SDS011;9762;52.490;13.410;2022-09-03T21:30:58;4.20;;;3.20;;
19255;SDS011;9762;52.490;13.410;2022-09-03T21:33:27;6.80;;;2.67;;
19255;SDS011;9762;52.490;13.410;2022-09-03T21:35:59;8.07;;;2.90;;
19255;SDS011;9762;52.490;13.410;2022-09-03T21:38:33;7.63;;;2.93;;
19255;SDS011;9762;52.490;13.410;2022-09-03T21:41:20;2.93;;;2.73;;
19255;SDS011;9762;52.490;13.410;2022-09-03T21:43:57;5.60;;;2.50;;
19255;SDS011;9762;52.490;13.410;2022-09-03T21:49:07;6.73;;;2.70;;
19255;SDS011;9762;52.490;13.410;2022-09-03T21:54:05;3.50;;;3.03;;